createdAt,value
2022-12-31T00:02:20.907Z,83.49
2022-12-31T00:04:49.374Z,83.43
2022-12-31T00:09:58.877Z,81.79
2022-12-31T00:12:27.471Z,81.82
2022-12-31T00:14:56.747Z,81.98
2022-12-31T00:17:26.421Z,82.00
2022-12-31T00:19:54.782Z,80.13
2022-12-31T00:22:23.358Z,80.54
2022-12-31T00:24:55.850Z,80.87
2022-12-31T00:27:24.717Z,80.85
2022-12-31T00:29:53.474Z,80.61
2022-12-31T00:32:21.855Z,80.74
2022-12-31T00:34:51.629Z,81.12
2022-12-31T00:37:19.951Z,80.39
2022-12-31T00:39:48.417Z,79.82
2022-12-31T00:42:16.730Z,79.76
2022-12-31T00:44:45.227Z,79.20
2022-12-31T00:47:13.880Z,80.65
2022-12-31T00:49:42.461Z,79.89
2022-12-31T00:52:14.230Z,80.06
2022-12-31T00:54:42.470Z,80.18
2022-12-31T00:57:11.212Z,79.23
2022-12-31T00:59:39.553Z,79.85
2022-12-31T01:02:07.915Z,79.61
2022-12-31T01:04:36.212Z,79.99
2022-12-31T01:07:04.372Z,79.61
2022-12-31T01:09:34.003Z,80.06
2022-12-31T01:12:02.085Z,81.12
2022-12-31T01:14:32.801Z,79.31
2022-12-31T01:17:01.106Z,80.12
2022-12-31T01:19:31.018Z,80.29
2022-12-31T01:22:02.839Z,80.68
2022-12-31T01:24:31.146Z,81.07
2022-12-31T01:27:00.666Z,81.82
2022-12-31T01:29:29.753Z,82.06
2022-12-31T01:31:57.947Z,81.14
2022-12-31T01:34:26.256Z,81.74
2022-12-31T01:36:54.444Z,82.63
2022-12-31T01:39:22.611Z,83.59
2022-12-31T01:41:50.736Z,83.92
2022-12-31T01:44:56.341Z,84.33
2022-12-31T01:47:36.229Z,85.22
2022-12-31T01:50:11.471Z,85.06
2022-12-31T01:52:42.482Z,86.51
2022-12-31T01:55:17.843Z,87.60
2022-12-31T01:57:49.248Z,88.27
2022-12-31T02:00:19.113Z,89.92
2022-12-31T02:02:47.782Z,90.04
2022-12-31T02:05:21.785Z,90.18
2022-12-31T02:07:51.091Z,90.90
2022-12-31T02:10:19.490Z,91.58
2022-12-31T02:12:48.756Z,92.12
2022-12-31T02:15:18.875Z,91.47
2022-12-31T02:17:55.716Z,92.18
2022-12-31T02:20:43.212Z,92.02
2022-12-31T02:23:34.678Z,92.87
2022-12-31T02:26:36.364Z,93.67
2022-12-31T02:29:28.403Z,94.36
2022-12-31T02:32:00.269Z,95.23
2022-12-31T02:34:33.999Z,94.37
2022-12-31T02:37:04.817Z,94.01
2022-12-31T02:39:34.973Z,93.83
2022-12-31T02:42:04.225Z,93.57
2022-12-31T02:44:33.911Z,93.74
2022-12-31T02:47:19.108Z,94.12
2022-12-31T02:50:02.067Z,94.53
2022-12-31T02:52:39.234Z,95.01
2022-12-31T02:55:16.597Z,94.55
2022-12-31T02:57:51.566Z,95.00
2022-12-31T03:00:37.519Z,94.95
2022-12-31T03:03:09.171Z,94.85
2022-12-31T03:05:41.661Z,93.64
2022-12-31T03:08:09.814Z,94.09
2022-12-31T03:10:38.260Z,94.01
2022-12-31T03:13:05.157Z,94.03
2022-12-31T03:15:45.089Z,93.72
2022-12-31T03:18:18.713Z,93.00
2022-12-31T03:21:08.464Z,92.70
2022-12-31T03:23:51.595Z,91.64
2022-12-31T03:26:21.846Z,90.48
2022-12-31T03:28:50.168Z,89.97
2022-12-31T03:31:23.101Z,88.27
2022-12-31T03:33:57.086Z,86.50
2022-12-31T03:36:29.747Z,86.69
2022-12-31T03:38:59.288Z,84.47
2022-12-31T03:41:27.567Z,85.33
2022-12-31T03:43:56.811Z,84.47
2022-12-31T03:46:24.943Z,83.68
2022-12-31T03:48:54.658Z,84.31
2022-12-31T03:51:24.111Z,82.73
2022-12-31T03:53:52.277Z,82.56
2022-12-31T03:56:20.370Z,83.65
2022-12-31T03:58:48.809Z,82.38
2022-12-31T04:01:17.286Z,81.50
2022-12-31T04:03:45.672Z,81.75
2022-12-31T04:06:15.376Z,82.41
2022-12-31T04:08:43.546Z,82.56
2022-12-31T04:11:14.759Z,82.17
2022-12-31T04:13:47.090Z,82.74
2022-12-31T04:16:15.386Z,81.59
2022-12-31T04:18:43.596Z,83.08
2022-12-31T04:21:11.673Z,85.69
2022-12-31T04:23:41.393Z,85.31
2022-12-31T04:26:09.710Z,86.06
2022-12-31T04:28:37.774Z,86.11
2022-12-31T04:31:06.264Z,86.88
2022-12-31T04:33:34.445Z,87.85
2022-12-31T04:36:02.976Z,87.34
2022-12-31T04:38:37.591Z,86.81
2022-12-31T04:41:19.947Z,86.44
2022-12-31T04:43:52.536Z,88.31
2022-12-31T04:46:23.210Z,87.39
2022-12-31T04:49:00.328Z,87.69
2022-12-31T04:51:39.743Z,87.78
2022-12-31T04:54:08.130Z,88.06
2022-12-31T04:56:37.879Z,87.70
2022-12-31T04:59:07.500Z,87.35
2022-12-31T05:02:06.739Z,87.47
2022-12-31T05:04:35.021Z,87.85
2022-12-31T05:07:09.926Z,87.17
2022-12-31T05:09:38.338Z,87.32
2022-12-31T05:12:08.419Z,87.04
2022-12-31T05:14:40.960Z,87.42
2022-12-31T05:17:26.848Z,87.88
2022-12-31T05:19:58.361Z,87.91
2022-12-31T05:22:44.768Z,87.26
2022-12-31T05:25:13.219Z,87.23
2022-12-31T05:27:46.579Z,86.76
2022-12-31T05:30:15.992Z,86.87
2022-12-31T05:35:48.703Z,85.75
2022-12-31T05:38:17.075Z,83.79
2022-12-31T05:40:45.435Z,83.73
2022-12-31T05:43:14.972Z,83.66
2022-12-31T05:45:43.104Z,82.15
2022-12-31T05:48:11.304Z,81.96
2022-12-31T05:50:39.443Z,82.04
2022-12-31T05:53:07.519Z,82.07
2022-12-31T05:55:35.648Z,82.33
2022-12-31T05:58:03.657Z,81.51
2022-12-31T06:00:38.395Z,81.52
2022-12-31T06:03:06.529Z,81.29
2022-12-31T06:05:34.857Z,80.90
2022-12-31T06:08:02.775Z,80.93
2022-12-31T06:10:30.710Z,80.81
2022-12-31T06:12:58.669Z,80.64
2022-12-31T06:15:26.610Z,79.90
2022-12-31T06:17:55.894Z,78.79
2022-12-31T06:20:23.818Z,79.80
2022-12-31T06:22:51.711Z,79.74
2022-12-31T06:25:20.922Z,79.27
2022-12-31T06:27:49.008Z,78.14
2022-12-31T06:30:17.179Z,78.67
2022-12-31T06:32:46.271Z,78.98
2022-12-31T06:35:15.835Z,79.72
2022-12-31T06:37:43.772Z,78.16
2022-12-31T06:40:15.523Z,77.39
2022-12-31T06:42:44.167Z,78.48
2022-12-31T06:45:14.095Z,78.00
2022-12-31T06:47:42.305Z,77.57
2022-12-31T06:50:10.706Z,76.85
2022-12-31T06:52:40.923Z,77.68
2022-12-31T06:55:12.723Z,78.52
2022-12-31T06:57:42.673Z,77.70
2022-12-31T07:00:12.619Z,78.16
2022-12-31T07:03:03.748Z,78.37
2022-12-31T07:05:46.918Z,78.62
2022-12-31T07:09:36.360Z,78.00
2022-12-31T07:11:48.215Z,78.46
2022-12-31T07:14:30.348Z,78.50
2022-12-31T07:17:08.617Z,78.27
2022-12-31T07:19:51.067Z,77.31
2022-12-31T07:22:22.880Z,77.35
2022-12-31T07:24:53.176Z,76.99
2022-12-31T07:27:38.504Z,76.13
2022-12-31T07:30:12.803Z,76.08
2022-12-31T07:33:01.224Z,76.61
2022-12-31T07:35:39.131Z,76.66
2022-12-31T07:38:15.576Z,75.21
2022-12-31T07:40:59.186Z,75.40
2022-12-31T07:43:34.623Z,74.88
2022-12-31T07:46:14.394Z,74.41
2022-12-31T07:48:42.990Z,75.17
2022-12-31T07:51:12.463Z,72.67
2022-12-31T07:53:40.587Z,72.96
2022-12-31T07:56:11.106Z,73.07
2022-12-31T07:58:55.489Z,73.08
2022-12-31T08:01:34.378Z,72.91
2022-12-31T08:04:08.161Z,72.67
2022-12-31T08:06:45.891Z,72.02
2022-12-31T08:09:27.776Z,72.27
2022-12-31T08:11:59.275Z,72.22
2022-12-31T08:14:29.317Z,71.76
2022-12-31T08:16:58.575Z,71.47
2022-12-31T08:19:30.642Z,72.18
2022-12-31T08:22:14.510Z,70.40
2022-12-31T08:25:09.468Z,70.88
2022-12-31T08:27:45.835Z,69.81
2022-12-31T08:30:16.640Z,70.46
2022-12-31T08:32:51.411Z,70.02
2022-12-31T08:35:32.512Z,70.09
2022-12-31T08:38:08.190Z,68.57
2022-12-31T08:40:45.610Z,68.34
2022-12-31T08:43:31.770Z,69.63
2022-12-31T08:46:01.609Z,69.77
2022-12-31T08:48:40.049Z,69.20
2022-12-31T08:51:14.338Z,67.50
2022-12-31T08:53:42.985Z,67.46
2022-12-31T08:56:21.454Z,67.35
2022-12-31T08:58:56.391Z,65.97
2022-12-31T09:01:30.672Z,66.89
2022-12-31T09:04:08.047Z,66.26
2022-12-31T09:06:42.718Z,66.22
2022-12-31T09:09:18.323Z,66.20
2022-12-31T09:11:54.710Z,65.35
2022-12-31T09:14:42.103Z,65.16
2022-12-31T09:17:31.396Z,66.21
2022-12-31T09:20:00.210Z,67.23
2022-12-31T09:22:28.993Z,65.67
2022-12-31T09:24:57.523Z,65.04
2022-12-31T09:27:32.000Z,65.38
2022-12-31T09:30:05.927Z,64.51
2022-12-31T09:32:43.921Z,63.27
2022-12-31T09:35:22.268Z,64.46
2022-12-31T09:37:53.116Z,65.31
2022-12-31T09:40:46.584Z,65.49
2022-12-31T09:44:01.002Z,62.61
2022-12-31T09:47:33.373Z,61.36
2022-12-31T09:50:36.463Z,62.34
2022-12-31T09:53:36.710Z,62.73
2022-12-31T09:56:11.448Z,61.81
2022-12-31T09:58:46.330Z,64.89
2022-12-31T10:01:27.894Z,63.55
2022-12-31T10:04:25.153Z,64.81
2022-12-31T10:07:05.700Z,62.22
2022-12-31T10:10:06.531Z,62.31
2022-12-31T10:13:09.934Z,61.92
2022-12-31T10:15:55.442Z,61.44
2022-12-31T10:18:39.601Z,63.14
2022-12-31T10:21:27.015Z,62.21
2022-12-31T10:24:18.489Z,62.29
2022-12-31T10:27:07.348Z,64.45
2022-12-31T10:29:46.815Z,62.46
2022-12-31T10:32:26.288Z,62.48
2022-12-31T10:35:10.668Z,59.65
2022-12-31T10:37:48.426Z,62.69
2022-12-31T10:40:27.932Z,65.10
2022-12-31T10:43:50.811Z,60.36
2022-12-31T10:46:57.520Z,59.92
2022-12-31T10:50:02.411Z,60.33
2022-12-31T10:53:14.210Z,60.16
2022-12-31T10:56:22.662Z,60.07
2022-12-31T11:06:46.109Z,61.70
2022-12-31T11:09:51.635Z,60.67
2022-12-31T11:12:40.280Z,60.72
2022-12-31T11:15:38.572Z,59.01
2022-12-31T11:18:18.863Z,60.11
2022-12-31T11:21:12.893Z,58.17
2022-12-31T11:23:49.718Z,57.23
2022-12-31T11:26:33.078Z,58.50
2022-12-31T11:29:15.559Z,57.60
2022-12-31T11:32:05.637Z,59.04
2022-12-31T11:35:09.954Z,58.69
2022-12-31T11:37:46.428Z,61.21
2022-12-31T11:40:43.230Z,60.26
2022-12-31T11:43:37.873Z,63.07
2022-12-31T11:46:41.524Z,63.40
2022-12-31T11:49:42.410Z,65.13
2022-12-31T11:52:36.705Z,64.13
2022-12-31T11:55:28.510Z,63.95
2022-12-31T11:58:03.841Z,66.41
2022-12-31T12:00:34.080Z,67.10
2022-12-31T12:03:06.154Z,67.52
2022-12-31T12:05:36.258Z,69.92
2022-12-31T12:08:05.243Z,70.62
2022-12-31T12:10:38.125Z,71.59
2022-12-31T12:13:15.776Z,73.31
2022-12-31T12:16:02.103Z,73.42
2022-12-31T12:18:36.197Z,74.11
2022-12-31T12:21:09.944Z,74.70
2022-12-31T12:23:38.746Z,75.75
2022-12-31T12:26:28.566Z,76.18
2022-12-31T12:28:56.692Z,77.07
2022-12-31T12:31:27.033Z,76.85
2022-12-31T12:33:55.145Z,77.69
2022-12-31T12:36:23.461Z,77.29
2022-12-31T12:39:02.892Z,77.23
2022-12-31T12:41:32.752Z,77.24
2022-12-31T12:44:06.477Z,76.92
2022-12-31T12:46:37.599Z,76.80
2022-12-31T12:49:06.573Z,78.21
2022-12-31T12:51:59.315Z,78.57
2022-12-31T12:54:39.888Z,78.21
2022-12-31T12:57:19.798Z,78.63
2022-12-31T13:00:04.406Z,78.51
2022-12-31T13:02:55.762Z,78.19
2022-12-31T13:05:36.673Z,78.68
2022-12-31T13:08:15.432Z,79.45
2022-12-31T13:10:59.349Z,78.97
2022-12-31T13:13:32.873Z,79.47
2022-12-31T13:16:09.025Z,80.28
2022-12-31T13:18:49.976Z,80.00
2022-12-31T13:21:32.416Z,80.49
2022-12-31T13:24:07.891Z,80.11
2022-12-31T13:26:45.059Z,80.28
2022-12-31T13:29:19.130Z,81.13
2022-12-31T13:31:49.086Z,80.53
2022-12-31T13:34:23.593Z,81.11
2022-12-31T13:36:54.248Z,80.24
2022-12-31T14:30:00.775Z,84.33
2022-12-31T14:32:59.995Z,83.91
2022-12-31T14:35:54.404Z,85.07
2022-12-31T14:38:34.936Z,86.70
2022-12-31T14:41:18.478Z,86.08
2022-12-31T14:43:56.004Z,88.33
2022-12-31T14:46:31.199Z,86.51
2022-12-31T14:49:16.329Z,86.28
2022-12-31T14:51:44.919Z,86.50
2022-12-31T14:54:30.651Z,88.67
2022-12-31T14:56:58.654Z,89.41
2022-12-31T14:59:32.192Z,89.64
2022-12-31T15:02:02.582Z,88.73
2022-12-31T15:04:35.695Z,90.90
2022-12-31T15:07:17.852Z,92.59
2022-12-31T15:09:58.891Z,94.04
2022-12-31T15:13:03.944Z,95.28
2022-12-31T15:15:56.270Z,94.77
2022-12-31T15:18:38.676Z,94.69
2022-12-31T15:49:24.987Z,99.27
2022-12-31T15:52:04.524Z,98.47
2022-12-31T15:54:43.753Z,97.03
2022-12-31T15:57:19.361Z,96.99
2022-12-31T15:59:50.895Z,97.51
2022-12-31T16:02:27.840Z,97.96
2022-12-31T16:04:57.700Z,98.40
2022-12-31T16:07:34.503Z,98.44
2022-12-31T16:10:07.634Z,98.50
2022-12-31T16:12:44.572Z,99.59
2022-12-31T16:15:32.812Z,100.00
2022-12-31T16:18:17.133Z,100.00
2022-12-31T16:20:54.884Z,100.00
2022-12-31T16:23:26.517Z,100.00
2022-12-31T16:26:01.694Z,100.00
2022-12-31T16:28:36.717Z,100.00
2022-12-31T16:31:17.279Z,100.00
2022-12-31T16:33:48.726Z,100.00
2022-12-31T16:36:22.631Z,100.00
2022-12-31T16:38:53.394Z,100.00
2022-12-31T16:41:24.820Z,100.00
2022-12-31T16:44:32.329Z,100.00
2022-12-31T16:47:04.021Z,100.00
2022-12-31T16:50:06.289Z,100.00
2022-12-31T16:52:39.811Z,100.00
2022-12-31T16:55:12.010Z,100.00
2022-12-31T16:57:58.705Z,100.00
2022-12-31T17:00:28.853Z,100.00
2022-12-31T17:03:10.011Z,99.62
2022-12-31T17:05:57.613Z,100.00
2022-12-31T17:08:30.766Z,100.00
2022-12-31T17:11:04.604Z,99.19
2022-12-31T17:13:37.204Z,98.65
2022-12-31T17:16:10.437Z,97.71
2022-12-31T17:18:39.907Z,96.25
2022-12-31T17:21:24.928Z,95.04
2022-12-31T17:23:56.656Z,94.53
2022-12-31T17:26:29.456Z,94.56
2022-12-31T17:29:02.235Z,95.37
2022-12-31T17:31:35.274Z,95.98
2022-12-31T17:34:24.488Z,97.20
2022-12-31T17:37:18.716Z,98.25
2022-12-31T17:39:48.449Z,99.36
2022-12-31T17:42:25.765Z,98.73
2022-12-31T17:44:58.138Z,99.15
2022-12-31T17:47:38.163Z,99.08
2022-12-31T17:50:21.302Z,99.08
2022-12-31T17:52:50.896Z,99.83
2022-12-31T17:55:19.971Z,99.44
2022-12-31T17:57:52.980Z,99.18
2022-12-31T18:00:23.451Z,99.10
2022-12-31T18:02:51.772Z,99.04
2022-12-31T18:05:22.155Z,99.63
2022-12-31T18:07:52.115Z,100.00
2022-12-31T18:10:23.460Z,100.00
2022-12-31T18:12:52.090Z,100.00
2022-12-31T18:15:22.749Z,100.00
2022-12-31T18:17:51.327Z,100.00
2022-12-31T18:20:20.019Z,100.00
2022-12-31T18:22:48.445Z,100.00
2022-12-31T18:25:20.752Z,100.00
2022-12-31T18:27:49.510Z,100.00
2022-12-31T18:30:18.132Z,100.00
2022-12-31T18:32:47.431Z,100.00
2022-12-31T18:35:48.619Z,100.00
2022-12-31T18:38:12.313Z,100.00
2022-12-31T18:40:44.640Z,100.00
2022-12-31T18:43:58.320Z,100.00
2022-12-31T18:46:27.152Z,100.00
2022-12-31T18:48:55.382Z,100.00
2022-12-31T18:51:31.709Z,100.00
2022-12-31T18:54:00.712Z,100.00
2022-12-31T18:56:31.437Z,100.00
2022-12-31T18:59:00.310Z,100.00
2022-12-31T19:01:31.464Z,100.00
2022-12-31T19:04:05.262Z,100.00
2022-12-31T19:06:34.235Z,100.00
2022-12-31T19:12:07.989Z,100.00
2022-12-31T19:14:37.130Z,100.00
2022-12-31T19:19:34.920Z,100.00
2022-12-31T19:22:05.647Z,100.00
2022-12-31T19:24:35.215Z,100.00
2022-12-31T19:27:03.738Z,100.00
2022-12-31T19:29:35.428Z,100.00
2022-12-31T19:32:08.173Z,100.00
2022-12-31T19:34:36.261Z,100.00
2022-12-31T19:37:05.065Z,100.00
2022-12-31T19:42:04.271Z,100.00
2022-12-31T19:44:33.649Z,100.00
2022-12-31T19:47:01.638Z,100.00
2022-12-31T19:49:29.597Z,100.00
2022-12-31T19:51:57.602Z,100.00
2022-12-31T19:54:25.588Z,100.00
2022-12-31T19:56:53.670Z,100.00
2022-12-31T19:59:21.688Z,100.00
2022-12-31T20:01:51.122Z,100.00
2022-12-31T20:04:19.377Z,100.00
2022-12-31T20:06:47.429Z,100.00
2022-12-31T20:09:15.512Z,100.00
2022-12-31T20:11:43.489Z,99.96
2022-12-31T20:14:12.024Z,98.29
2022-12-31T20:16:40.087Z,97.26
2022-12-31T20:19:10.906Z,95.87
2022-12-31T20:21:38.923Z,95.90
2022-12-31T20:24:07.332Z,96.13
2022-12-31T20:26:35.445Z,97.01
2022-12-31T20:29:03.409Z,97.47
2022-12-31T20:31:31.461Z,97.29
2022-12-31T20:33:59.428Z,97.09
2022-12-31T20:36:28.796Z,96.61
2022-12-31T20:38:56.709Z,96.82
2022-12-31T20:41:25.052Z,96.38
2022-12-31T20:43:53.189Z,96.35
2022-12-31T20:46:24.903Z,96.26
2022-12-31T20:48:54.816Z,95.45
2022-12-31T20:51:24.198Z,96.05
2022-12-31T20:53:56.055Z,95.28
2022-12-31T20:56:25.337Z,95.22
2022-12-31T20:58:53.343Z,94.63
2022-12-31T21:01:24.238Z,93.64
2022-12-31T21:04:04.774Z,92.98
2022-12-31T21:06:35.919Z,92.14
2022-12-31T21:09:12.119Z,91.69
2022-12-31T21:11:58.230Z,91.71
2022-12-31T21:14:26.371Z,86.44
2022-12-31T21:16:54.570Z,86.89
2022-12-31T21:19:23.457Z,87.35
2022-12-31T21:21:52.111Z,86.59
2022-12-31T21:24:24.481Z,86.15
2022-12-31T21:26:52.927Z,85.68
2022-12-31T21:30:18.791Z,85.84
2022-12-31T21:32:52.392Z,86.28
2022-12-31T21:39:16.379Z,86.88
2022-12-31T21:41:53.490Z,86.83
2022-12-31T21:44:22.628Z,86.42
2022-12-31T21:47:16.339Z,85.57
2022-12-31T21:49:39.089Z,84.16
2022-12-31T21:52:20.943Z,84.69
2022-12-31T21:55:06.422Z,84.28
2022-12-31T21:57:59.105Z,84.87
2022-12-31T22:00:43.063Z,82.53
2022-12-31T22:03:26.967Z,81.82
2022-12-31T22:06:00.515Z,82.85
2022-12-31T22:08:30.258Z,80.72
2022-12-31T22:10:58.715Z,82.52
2022-12-31T22:13:28.667Z,82.51
2022-12-31T22:16:05.850Z,81.23
2022-12-31T22:18:35.955Z,82.28
2022-12-31T22:21:10.799Z,82.14
2022-12-31T22:23:44.506Z,82.26
2022-12-31T22:26:15.277Z,82.87
2022-12-31T22:28:45.974Z,81.76
2022-12-31T22:31:16.996Z,82.49
2022-12-31T22:33:47.291Z,82.79
2022-12-31T22:36:39.487Z,82.38
2022-12-31T22:39:09.058Z,83.12
2022-12-31T22:41:42.484Z,82.82
2022-12-31T22:44:13.169Z,81.72
2022-12-31T22:46:42.065Z,82.87
2022-12-31T22:49:14.492Z,82.71
2022-12-31T22:51:57.136Z,82.59
2022-12-31T22:54:26.983Z,82.29
2022-12-31T22:56:54.990Z,82.53
2022-12-31T22:59:31.467Z,82.58
2022-12-31T23:01:59.593Z,83.16
2022-12-31T23:05:16.140Z,81.88
2022-12-31T23:07:44.551Z,81.77
2022-12-31T23:10:29.768Z,83.26
2022-12-31T23:12:57.738Z,82.07
2022-12-31T23:15:44.440Z,82.49
2022-12-31T23:18:29.592Z,83.65
2022-12-31T23:21:14.874Z,82.89
2022-12-31T23:23:42.832Z,82.97
2022-12-31T23:26:10.777Z,82.93
2022-12-31T23:28:38.775Z,81.27
2022-12-31T23:31:08.872Z,80.93
2022-12-31T23:33:36.884Z,79.90
2022-12-31T23:36:05.922Z,79.89
2022-12-31T23:38:33.923Z,80.68
2022-12-31T23:41:01.887Z,79.57
2022-12-31T23:43:29.809Z,80.88
2022-12-31T23:45:57.776Z,80.52
2022-12-31T23:48:28.449Z,81.10
2022-12-31T23:50:57.726Z,79.98
2022-12-31T23:53:27.287Z,80.13
2022-12-31T23:55:55.867Z,80.02
2022-12-31T23:58:27.990Z,80.73
